<?xml version="1.0" encoding="UTF-8" standalone="no" ?>
<gpx xmlns="http://www.topografix.com/GPX/1/1" xmlns:xsi="http://www.w3.org/2001/XMLSchema-instance" xsi:schemaLocation="http://www.topografix.com/GPX/1/1 http://www.topografix.com/GPX/1/1/gpx.xsd" version="1.1" creator="VisuGPX - https://www.visugpx.com">
  <metadata>
    <name>Edirne-Sarajevo</name>
  </metadata>
  <trk>
    <name><![CDATA[Tour d'Europe: étape 713]]></name>
    <extensions>
      <line xmlns="http://www.topografix.com/GPX/gpx_style/0/2">
        <color>00FF00</color>
        <width>4</width>
      </line>
    </extensions>
    <trkseg>
      <trkpt lat="42.84719" lon="17.97979">
        <ele>313.263002</ele>
        <time>2022-06-11T08:03:25.832Z</time>
      </trkpt>
      <trkpt lat="42.84833" lon="17.97985">
        <ele>313.1769</ele>
        <time>2022-06-11T08:15:14.010Z</time>
      </trkpt>
      <trkpt lat="42.85024" lon="17.98124">
        <ele>312.217154</ele>
        <time>2022-06-11T08:16:35.021Z</time>
      </trkpt>
      <trkpt lat="42.85216" lon="17.98216">
        <ele>314.15179</ele>
        <time>2022-06-11T08:17:58.022Z</time>
      </trkpt>
      <trkpt lat="42.8542" lon="17.98232">
        <ele>318.232989</ele>
        <time>2022-06-11T08:19:33.029Z</time>
      </trkpt>
      <trkpt lat="42.85602" lon="17.981">
        <ele>320.517492</ele>
        <time>2022-06-11T08:21:09.025Z</time>
      </trkpt>
      <trkpt lat="42.85786" lon="17.98026">
        <ele>325.75459</ele>
        <time>2022-06-11T08:22:42.022Z</time>
      </trkpt>
      <trkpt lat="42.85928" lon="17.97866">
        <ele>323.458735</ele>
        <time>2022-06-11T08:24:19.043Z</time>
      </trkpt>
      <trkpt lat="42.85897" lon="17.97603">
        <ele>325.923336</ele>
        <time>2022-06-11T08:25:56.062Z</time>
      </trkpt>
      <trkpt lat="42.86" lon="17.97371">
        <ele>329.217684</ele>
        <time>2022-06-11T08:27:28.011Z</time>
      </trkpt>
      <trkpt lat="42.86052" lon="17.97098">
        <ele>333.092076</ele>
        <time>2022-06-11T08:29:05.055Z</time>
      </trkpt>
      <trkpt lat="42.86235" lon="17.97018">
        <ele>336.280232</ele>
        <time>2022-06-11T08:30:38.031Z</time>
      </trkpt>
      <trkpt lat="42.86458" lon="17.97032">
        <ele>338.201482</ele>
        <time>2022-06-11T08:32:01.016Z</time>
      </trkpt>
      <trkpt lat="42.86661" lon="17.97037">
        <ele>340.941394</ele>
        <time>2022-06-11T08:33:19.032Z</time>
      </trkpt>
      <trkpt lat="42.87163" lon="17.97305">
        <ele>365.37272</ele>
        <time>2022-06-11T08:40:39.023Z</time>
      </trkpt>
      <trkpt lat="42.87375" lon="17.97293">
        <ele>352.156259</ele>
        <time>2022-06-11T08:44:41.022Z</time>
      </trkpt>
      <trkpt lat="42.8757" lon="17.97272">
        <ele>351.906389</ele>
        <time>2022-06-11T08:46:21.066Z</time>
      </trkpt>
      <trkpt lat="42.87765" lon="17.97238">
        <ele>356.80369</ele>
        <time>2022-06-11T08:48:06.030Z</time>
      </trkpt>
      <trkpt lat="42.87924" lon="17.97065">
        <ele>358.557341</ele>
        <time>2022-06-11T08:49:46.024Z</time>
      </trkpt>
      <trkpt lat="42.88106" lon="17.96953">
        <ele>358.680691</ele>
        <time>2022-06-11T08:51:26.028Z</time>
      </trkpt>
      <trkpt lat="42.88243" lon="17.97141">
        <ele>359.217666</ele>
        <time>2022-06-11T08:53:11.027Z</time>
      </trkpt>
      <trkpt lat="42.88401" lon="17.97265">
        <ele>362.640349</ele>
        <time>2022-06-11T08:54:57.060Z</time>
      </trkpt>
      <trkpt lat="42.88601" lon="17.97181">
        <ele>365.454209</ele>
        <time>2022-06-11T08:56:10.027Z</time>
      </trkpt>
      <trkpt lat="42.88792" lon="17.9711">
        <ele>365.942693</ele>
        <time>2022-06-11T08:57:13.032Z</time>
      </trkpt>
      <trkpt lat="42.88991" lon="17.97157">
        <ele>365.956439</ele>
        <time>2022-06-11T08:58:28.018Z</time>
      </trkpt>
      <trkpt lat="42.892" lon="17.97122">
        <ele>363.326515</ele>
        <time>2022-06-11T08:59:31.010Z</time>
      </trkpt>
      <trkpt lat="42.89408" lon="17.97197">
        <ele>360.544507</ele>
        <time>2022-06-11T09:00:31.008Z</time>
      </trkpt>
      <trkpt lat="42.89579" lon="17.97415">
        <ele>362.177107</ele>
        <time>2022-06-11T09:01:34.021Z</time>
      </trkpt>
      <trkpt lat="42.89661" lon="17.97683">
        <ele>365.607085</ele>
        <time>2022-06-11T09:02:35.014Z</time>
      </trkpt>
      <trkpt lat="42.89824" lon="17.97843">
        <ele>365.816556</ele>
        <time>2022-06-11T09:03:35.021Z</time>
      </trkpt>
      <trkpt lat="42.90029" lon="17.97812">
        <ele>364.886826</ele>
        <time>2022-06-11T09:04:40.024Z</time>
      </trkpt>
      <trkpt lat="42.90227" lon="17.97747">
        <ele>364.569231</ele>
        <time>2022-06-11T09:05:45.022Z</time>
      </trkpt>
      <trkpt lat="42.90454" lon="17.97738">
        <ele>360.846278</ele>
        <time>2022-06-11T09:06:48.021Z</time>
      </trkpt>
      <trkpt lat="42.9066" lon="17.97758">
        <ele>357.859743</ele>
        <time>2022-06-11T09:07:48.015Z</time>
      </trkpt>
      <trkpt lat="42.90855" lon="17.97665">
        <ele>353.450433</ele>
        <time>2022-06-11T09:08:49.029Z</time>
      </trkpt>
      <trkpt lat="42.91032" lon="17.97498">
        <ele>358.104714</ele>
        <time>2022-06-11T09:09:52.016Z</time>
      </trkpt>
      <trkpt lat="42.91191" lon="17.97324">
        <ele>361.07511</ele>
        <time>2022-06-11T09:10:54.028Z</time>
      </trkpt>
      <trkpt lat="42.91425" lon="17.97292">
        <ele>356.746753</ele>
        <time>2022-06-11T09:11:57.021Z</time>
      </trkpt>
      <trkpt lat="42.91608" lon="17.97167">
        <ele>358.630282</ele>
        <time>2022-06-11T09:12:57.021Z</time>
      </trkpt>
      <trkpt lat="42.91812" lon="17.97097">
        <ele>358.189644</ele>
        <time>2022-06-11T09:13:57.024Z</time>
      </trkpt>
      <trkpt lat="42.91997" lon="17.96914">
        <ele>358.141501</ele>
        <time>2022-06-11T09:15:00.019Z</time>
      </trkpt>
      <trkpt lat="42.92129" lon="17.96667">
        <ele>354.660101</ele>
        <time>2022-06-11T09:16:00.029Z</time>
      </trkpt>
      <trkpt lat="42.92239" lon="17.964">
        <ele>351.528803</ele>
        <time>2022-06-11T09:17:03.017Z</time>
      </trkpt>
      <trkpt lat="42.92322" lon="17.96098">
        <ele>350.717875</ele>
        <time>2022-06-11T09:18:00.014Z</time>
      </trkpt>
      <trkpt lat="42.92454" lon="17.95844">
        <ele>353.7988</ele>
        <time>2022-06-11T09:18:51.023Z</time>
      </trkpt>
      <trkpt lat="42.92555" lon="17.95567">
        <ele>349.70356</ele>
        <time>2022-06-11T09:19:47.017Z</time>
      </trkpt>
      <trkpt lat="42.92674" lon="17.95289">
        <ele>348.813656</ele>
        <time>2022-06-11T09:20:44.012Z</time>
      </trkpt>
      <trkpt lat="42.92739" lon="17.94985">
        <ele>345.204739</ele>
        <time>2022-06-11T09:21:37.030Z</time>
      </trkpt>
      <trkpt lat="42.92753" lon="17.94699">
        <ele>347.314377</ele>
        <time>2022-06-11T09:22:25.018Z</time>
      </trkpt>
      <trkpt lat="42.92728" lon="17.94413">
        <ele>343.933955</ele>
        <time>2022-06-11T09:23:15.036Z</time>
      </trkpt>
      <trkpt lat="42.92706" lon="17.94052">
        <ele>339.248306</ele>
        <time>2022-06-11T09:24:17.016Z</time>
      </trkpt>
      <trkpt lat="42.92684" lon="17.93753">
        <ele>339.192175</ele>
        <time>2022-06-11T09:25:07.044Z</time>
      </trkpt>
      <trkpt lat="42.92627" lon="17.93498">
        <ele>337.767885</ele>
        <time>2022-06-11T09:25:49.016Z</time>
      </trkpt>
      <trkpt lat="42.92538" lon="17.93268">
        <ele>334.9266</ele>
        <time>2022-06-11T09:26:30.073Z</time>
      </trkpt>
      <trkpt lat="42.92381" lon="17.93077">
        <ele>334.524835</ele>
        <time>2022-06-11T09:27:17.022Z</time>
      </trkpt>
      <trkpt lat="42.9216" lon="17.92962">
        <ele>337.267011</ele>
        <time>2022-06-11T09:28:18.022Z</time>
      </trkpt>
      <trkpt lat="42.91963" lon="17.92854">
        <ele>337.045648</ele>
        <time>2022-06-11T09:29:16.022Z</time>
      </trkpt>
      <trkpt lat="42.91758" lon="17.92919">
        <ele>337.247102</ele>
        <time>2022-06-11T09:30:04.019Z</time>
      </trkpt>
      <trkpt lat="42.91532" lon="17.93038">
        <ele>335.641523</ele>
        <time>2022-06-11T09:31:01.029Z</time>
      </trkpt>
      <trkpt lat="42.913" lon="17.9303">
        <ele>335.176232</ele>
        <time>2022-06-11T09:31:54.024Z</time>
      </trkpt>
      <trkpt lat="42.91087" lon="17.92899">
        <ele>333.772645</ele>
        <time>2022-06-11T09:32:49.026Z</time>
      </trkpt>
      <trkpt lat="42.90882" lon="17.92744">
        <ele>334.974367</ele>
        <time>2022-06-11T09:33:43.015Z</time>
      </trkpt>
      <trkpt lat="42.90674" lon="17.92671">
        <ele>336.519892</ele>
        <time>2022-06-11T09:34:25.022Z</time>
      </trkpt>
      <trkpt lat="42.90456" lon="17.92776">
        <ele>334.173545</ele>
        <time>2022-06-11T09:35:05.031Z</time>
      </trkpt>
      <trkpt lat="42.9024" lon="17.92857">
        <ele>333.782733</ele>
        <time>2022-06-11T09:35:45.010Z</time>
      </trkpt>
      <trkpt lat="42.90063" lon="17.92689">
        <ele>332.299488</ele>
        <time>2022-06-11T09:36:28.028Z</time>
      </trkpt>
      <trkpt lat="42.90093" lon="17.92426">
        <ele>334.543435</ele>
        <time>2022-06-11T09:37:12.003Z</time>
      </trkpt>
      <trkpt lat="42.90143" lon="17.92146">
        <ele>334.828818</ele>
        <time>2022-06-11T09:37:57.010Z</time>
      </trkpt>
      <trkpt lat="42.90032" lon="17.91927">
        <ele>332.509201</ele>
        <time>2022-06-11T09:38:40.028Z</time>
      </trkpt>
      <trkpt lat="42.89906" lon="17.91714">
        <ele>333.175173</ele>
        <time>2022-06-11T09:39:24.068Z</time>
      </trkpt>
      <trkpt lat="42.89895" lon="17.91428">
        <ele>334.414181</ele>
        <time>2022-06-11T09:40:08.055Z</time>
      </trkpt>
      <trkpt lat="42.89951" lon="17.91191">
        <ele>335.720814</ele>
        <time>2022-06-11T09:40:51.026Z</time>
      </trkpt>
      <trkpt lat="42.90161" lon="17.91074">
        <ele>332.975275</ele>
        <time>2022-06-11T09:41:41.014Z</time>
      </trkpt>
      <trkpt lat="42.90387" lon="17.90994">
        <ele>331.191679</ele>
        <time>2022-06-11T09:42:38.054Z</time>
      </trkpt>
      <trkpt lat="42.90561" lon="17.9077">
        <ele>329.630548</ele>
        <time>2022-06-11T09:43:33.030Z</time>
      </trkpt>
      <trkpt lat="42.90683" lon="17.90516">
        <ele>329.170818</ele>
        <time>2022-06-11T09:44:22.012Z</time>
      </trkpt>
      <trkpt lat="42.90811" lon="17.90328">
        <ele>328.337627</ele>
        <time>2022-06-11T09:45:04.068Z</time>
      </trkpt>
      <trkpt lat="42.91027" lon="17.90453">
        <ele>327.888826</ele>
        <time>2022-06-11T09:46:05.037Z</time>
      </trkpt>
      <trkpt lat="42.91233" lon="17.90397">
        <ele>327.024573</ele>
        <time>2022-06-11T09:47:05.024Z</time>
      </trkpt>
      <trkpt lat="42.91384" lon="17.90176">
        <ele>328.430804</ele>
        <time>2022-06-11T09:48:05.031Z</time>
      </trkpt>
      <trkpt lat="42.91465" lon="17.89866">
        <ele>326.061412</ele>
        <time>2022-06-11T09:49:08.022Z</time>
      </trkpt>
      <trkpt lat="42.91517" lon="17.89558">
        <ele>325.508096</ele>
        <time>2022-06-11T09:50:08.026Z</time>
      </trkpt>
      <trkpt lat="42.91611" lon="17.89241">
        <ele>325.49089</ele>
        <time>2022-06-11T09:51:11.038Z</time>
      </trkpt>
      <trkpt lat="42.91674" lon="17.88914">
        <ele>324.660503</ele>
        <time>2022-06-11T09:52:09.014Z</time>
      </trkpt>
      <trkpt lat="42.91769" lon="17.88623">
        <ele>325.854801</ele>
        <time>2022-06-11T10:22:00.025Z</time>
      </trkpt>
      <trkpt lat="42.91798" lon="17.88319">
        <ele>323.376589</ele>
        <time>2022-06-11T10:25:24.018Z</time>
      </trkpt>
      <trkpt lat="42.91865" lon="17.87999">
        <ele>322.440832</ele>
        <time>2022-06-11T10:26:24.012Z</time>
      </trkpt>
      <trkpt lat="42.91968" lon="17.87683">
        <ele>322.168673</ele>
        <time>2022-06-11T10:27:27.033Z</time>
      </trkpt>
      <trkpt lat="42.92111" lon="17.87423">
        <ele>319.202316</ele>
        <time>2022-06-11T10:28:27.020Z</time>
      </trkpt>
      <trkpt lat="42.92221" lon="17.87137">
        <ele>322.45862</ele>
        <time>2022-06-11T10:29:27.086Z</time>
      </trkpt>
      <trkpt lat="42.9234" lon="17.86825">
        <ele>324.168967</ele>
        <time>2022-06-11T10:30:30.043Z</time>
      </trkpt>
      <trkpt lat="42.92445" lon="17.86523">
        <ele>323.096446</ele>
        <time>2022-06-11T10:31:28.044Z</time>
      </trkpt>
      <trkpt lat="42.92338" lon="17.86259">
        <ele>324.311589</ele>
        <time>2022-06-11T10:32:29.020Z</time>
      </trkpt>
      <trkpt lat="42.92192" lon="17.86009">
        <ele>324.665584</ele>
        <time>2022-06-11T10:33:29.023Z</time>
      </trkpt>
      <trkpt lat="42.92159" lon="17.85682">
        <ele>322.276013</ele>
        <time>2022-06-11T10:34:29.025Z</time>
      </trkpt>
      <trkpt lat="42.92107" lon="17.85369">
        <ele>321.044109</ele>
        <time>2022-06-11T10:35:23.020Z</time>
      </trkpt>
      <trkpt lat="42.92126" lon="17.85031">
        <ele>322.627284</ele>
        <time>2022-06-11T10:36:22.025Z</time>
      </trkpt>
      <trkpt lat="42.91997" lon="17.84746">
        <ele>325.10991</ele>
        <time>2022-06-11T10:37:24.020Z</time>
      </trkpt>
      <trkpt lat="42.91908" lon="17.84459">
        <ele>326.043134</ele>
        <time>2022-06-11T10:38:16.027Z</time>
      </trkpt>
      <trkpt lat="42.91865" lon="17.84157">
        <ele>323.257633</ele>
        <time>2022-06-11T10:39:10.019Z</time>
      </trkpt>
      <trkpt lat="42.91959" lon="17.83837">
        <ele>320.733835</ele>
        <time>2022-06-11T10:40:12.022Z</time>
      </trkpt>
      <trkpt lat="42.92074" lon="17.83555">
        <ele>320.684205</ele>
        <time>2022-06-11T10:41:12.062Z</time>
      </trkpt>
      <trkpt lat="42.92221" lon="17.83263">
        <ele>319.735403</ele>
        <time>2022-06-11T10:42:15.021Z</time>
      </trkpt>
      <trkpt lat="42.9242" lon="17.83089">
        <ele>317.91048</ele>
        <time>2022-06-11T10:43:15.017Z</time>
      </trkpt>
      <trkpt lat="42.9262" lon="17.82936">
        <ele>319.420468</ele>
        <time>2022-06-11T10:44:15.024Z</time>
      </trkpt>
      <trkpt lat="42.92826" lon="17.82772">
        <ele>319.682875</ele>
        <time>2022-06-11T10:45:18.007Z</time>
      </trkpt>
      <trkpt lat="42.93023" lon="17.82581">
        <ele>318.494425</ele>
        <time>2022-06-11T10:46:16.026Z</time>
      </trkpt>
      <trkpt lat="42.93175" lon="17.82338">
        <ele>316.535626</ele>
        <time>2022-06-11T10:47:09.057Z</time>
      </trkpt>
      <trkpt lat="42.93329" lon="17.82119">
        <ele>314.930396</ele>
        <time>2022-06-11T10:47:59.016Z</time>
      </trkpt>
      <trkpt lat="42.93423" lon="17.81984">
        <ele>314.034704</ele>
        <time>2022-06-11T10:51:32.024Z</time>
      </trkpt>
      <trkpt lat="42.93538" lon="17.82172">
        <ele>295.799364</ele>
        <time>2022-06-11T10:52:14.009Z</time>
      </trkpt>
      <trkpt lat="42.93743" lon="17.82226">
        <ele>285.846764</ele>
        <time>2022-06-11T10:53:07.021Z</time>
      </trkpt>
      <trkpt lat="42.93958" lon="17.82238">
        <ele>296.653125</ele>
        <time>2022-06-11T10:54:54.069Z</time>
      </trkpt>
      <trkpt lat="42.9417" lon="17.8224">
        <ele>295.694902</ele>
        <time>2022-06-11T10:55:57.020Z</time>
      </trkpt>
      <trkpt lat="42.94363" lon="17.82181">
        <ele>291.347673</ele>
        <time>2022-06-11T10:57:29.014Z</time>
      </trkpt>
      <trkpt lat="42.94544" lon="17.82042">
        <ele>290.625842</ele>
        <time>2022-06-11T10:59:09.016Z</time>
      </trkpt>
      <trkpt lat="42.94711" lon="17.81917">
        <ele>298.199999</ele>
        <time>2022-06-11T11:00:38.028Z</time>
      </trkpt>
      <trkpt lat="42.94879" lon="17.81749">
        <ele>315.131177</ele>
        <time>2022-06-11T11:02:04.023Z</time>
      </trkpt>
      <trkpt lat="42.95054" lon="17.81646">
        <ele>329.889784</ele>
        <time>2022-06-11T11:03:28.017Z</time>
      </trkpt>
      <trkpt lat="42.95239" lon="17.81543">
        <ele>329.751098</ele>
        <time>2022-06-11T11:04:51.019Z</time>
      </trkpt>
      <trkpt lat="42.95379" lon="17.81356">
        <ele>331.744398</ele>
        <time>2022-06-11T11:06:29.019Z</time>
      </trkpt>
      <trkpt lat="42.95507" lon="17.81147">
        <ele>332.716476</ele>
        <time>2022-06-11T11:08:09.015Z</time>
      </trkpt>
      <trkpt lat="42.956" lon="17.80877">
        <ele>342.953435</ele>
        <time>2022-06-11T11:09:30.018Z</time>
      </trkpt>
      <trkpt lat="42.95655" lon="17.80602">
        <ele>343.450769</ele>
        <time>2022-06-11T11:10:17.023Z</time>
      </trkpt>
      <trkpt lat="42.9565" lon="17.80339">
        <ele>346.469472</ele>
        <time>2022-06-11T11:11:39.049Z</time>
      </trkpt>
      <trkpt lat="42.95654" lon="17.80318">
        <ele>349.247495</ele>
        <time>2022-06-11T11:22:51.031Z</time>
      </trkpt>
      <trkpt lat="42.95662" lon="17.80521">
        <ele>333.322781</ele>
        <time>2022-06-11T11:24:10.024Z</time>
      </trkpt>
      <trkpt lat="42.95727" lon="17.80258">
        <ele>336.264287</ele>
        <time>2022-06-11T11:34:33.997Z</time>
      </trkpt>
      <trkpt lat="42.95748" lon="17.80046">
        <ele>337.110388</ele>
        <time>2022-06-11T11:35:47.031Z</time>
      </trkpt>
      <trkpt lat="42.95922" lon="17.79886">
        <ele>332.937296</ele>
        <time>2022-06-11T11:36:57.020Z</time>
      </trkpt>
      <trkpt lat="42.96118" lon="17.79752">
        <ele>323.477659</ele>
        <time>2022-06-11T11:38:06.025Z</time>
      </trkpt>
      <trkpt lat="42.9631" lon="17.79628">
        <ele>320.150202</ele>
        <time>2022-06-11T11:39:19.007Z</time>
      </trkpt>
      <trkpt lat="42.96511" lon="17.79557">
        <ele>330.579138</ele>
        <time>2022-06-11T11:40:51.023Z</time>
      </trkpt>
      <trkpt lat="42.96646" lon="17.79618">
        <ele>343.1809</ele>
        <time>2022-06-11T11:42:30.002Z</time>
      </trkpt>
      <trkpt lat="42.96742" lon="17.79434">
        <ele>350.597145</ele>
        <time>2022-06-11T11:47:30.993Z</time>
      </trkpt>
      <trkpt lat="42.96989" lon="17.79304">
        <ele>352.284366</ele>
        <time>2022-06-11T11:48:22.002Z</time>
      </trkpt>
      <trkpt lat="42.97173" lon="17.79339">
        <ele>357.859859</ele>
        <time>2022-06-11T11:49:30.045Z</time>
      </trkpt>
      <trkpt lat="42.97368" lon="17.79382">
        <ele>368.329046</ele>
        <time>2022-06-11T11:51:14.024Z</time>
      </trkpt>
      <trkpt lat="42.97566" lon="17.79327">
        <ele>379.080711</ele>
        <time>2022-06-11T11:53:21.011Z</time>
      </trkpt>
      <trkpt lat="42.97741" lon="17.79461">
        <ele>380.992341</ele>
        <time>2022-06-11T11:54:51.990Z</time>
      </trkpt>
      <trkpt lat="42.97946" lon="17.79485">
        <ele>388.263842</ele>
        <time>2022-06-11T11:56:16.056Z</time>
      </trkpt>
      <trkpt lat="42.98141" lon="17.7942">
        <ele>396.639368</ele>
        <time>2022-06-11T11:58:11.029Z</time>
      </trkpt>
      <trkpt lat="42.9832" lon="17.79517">
        <ele>412.978702</ele>
        <time>2022-06-11T12:03:20.023Z</time>
      </trkpt>
      <trkpt lat="42.98405" lon="17.79728">
        <ele>436.023581</ele>
        <time>2022-06-11T12:06:44.020Z</time>
      </trkpt>
      <trkpt lat="42.98322" lon="17.79957">
        <ele>452.422663</ele>
        <time>2022-06-11T12:09:35.022Z</time>
      </trkpt>
      <trkpt lat="42.98263" lon="17.80224">
        <ele>460.249095</ele>
        <time>2022-06-11T12:11:48.998Z</time>
      </trkpt>
      <trkpt lat="42.98325" lon="17.80477">
        <ele>451.580831</ele>
        <time>2022-06-11T12:13:01.008Z</time>
      </trkpt>
      <trkpt lat="42.9851" lon="17.80773">
        <ele>434.001091</ele>
        <time>2022-06-11T12:13:34.999Z</time>
      </trkpt>
      <trkpt lat="42.98654" lon="17.81041">
        <ele>429.391861</ele>
        <time>2022-06-11T12:25:24.011Z</time>
      </trkpt>
      <trkpt lat="42.9859" lon="17.81301">
        <ele>428.097597</ele>
        <time>2022-06-11T12:26:23.018Z</time>
      </trkpt>
      <trkpt lat="42.98718" lon="17.81544">
        <ele>426.660909</ele>
        <time>2022-06-11T12:27:11.053Z</time>
      </trkpt>
      <trkpt lat="42.98775" lon="17.81808">
        <ele>427.789304</ele>
        <time>2022-06-11T12:27:55.004Z</time>
      </trkpt>
      <trkpt lat="42.98842" lon="17.82132">
        <ele>431.5682</ele>
        <time>2022-06-11T12:28:54.034Z</time>
      </trkpt>
      <trkpt lat="42.9893" lon="17.82421">
        <ele>431.094365</ele>
        <time>2022-06-11T12:29:56.020Z</time>
      </trkpt>
      <trkpt lat="42.9906" lon="17.82185">
        <ele>424.847938</ele>
        <time>2022-06-11T12:30:43.013Z</time>
      </trkpt>
      <trkpt lat="42.99208" lon="17.81864">
        <ele>418.794051</ele>
        <time>2022-06-11T12:31:27.028Z</time>
      </trkpt>
      <trkpt lat="42.9929" lon="17.81542">
        <ele>407.341182</ele>
        <time>2022-06-11T12:32:09.026Z</time>
      </trkpt>
      <trkpt lat="42.99406" lon="17.81195">
        <ele>387.656034</ele>
        <time>2022-06-11T12:32:45.058Z</time>
      </trkpt>
      <trkpt lat="42.99576" lon="17.80987">
        <ele>375.608686</ele>
        <time>2022-06-11T12:33:29.053Z</time>
      </trkpt>
      <trkpt lat="42.99758" lon="17.80874">
        <ele>375.419952</ele>
        <time>2022-06-11T12:34:28.010Z</time>
      </trkpt>
      <trkpt lat="42.99929" lon="17.80673">
        <ele>373.303334</ele>
        <time>2022-06-11T12:35:19.037Z</time>
      </trkpt>
      <trkpt lat="43.0009" lon="17.80497">
        <ele>364.933012</ele>
        <time>2022-06-11T12:35:59.065Z</time>
      </trkpt>
      <trkpt lat="43.00269" lon="17.80338">
        <ele>347.499242</ele>
        <time>2022-06-11T12:36:44.026Z</time>
      </trkpt>
      <trkpt lat="43.00387" lon="17.80188">
        <ele>322.404273</ele>
        <time>2022-06-11T12:37:28.035Z</time>
      </trkpt>
      <trkpt lat="43.0053" lon="17.80417">
        <ele>304.938189</ele>
        <time>2022-06-11T12:38:08.022Z</time>
      </trkpt>
      <trkpt lat="43.00559" lon="17.80649">
        <ele>292.534429</ele>
        <time>2022-06-11T12:48:30.032Z</time>
      </trkpt>
      <trkpt lat="43.00528" lon="17.80678">
        <ele>282.288581</ele>
        <time>2022-06-11T12:49:29.032Z</time>
      </trkpt>
      <trkpt lat="43.00497" lon="17.80704">
        <ele>272.482504</ele>
        <time>2022-06-11T12:50:18.014Z</time>
      </trkpt>
      <trkpt lat="43.00737" lon="17.80694">
        <ele>254.428317</ele>
        <time>2022-06-11T12:51:03.023Z</time>
      </trkpt>
      <trkpt lat="43.00835" lon="17.80515">
        <ele>242.324296</ele>
        <time>2022-06-11T12:51:53.021Z</time>
      </trkpt>
      <trkpt lat="43.00887" lon="17.80315">
        <ele>232.301544</ele>
        <time>2022-06-11T12:52:38.017Z</time>
      </trkpt>
      <trkpt lat="43.00934" lon="17.80038">
        <ele>225.961187</ele>
        <time>2022-06-11T12:54:19.032Z</time>
      </trkpt>
      <trkpt lat="43.00748" lon="17.79919">
        <ele>209.665897</ele>
        <time>2022-06-11T12:55:00.040Z</time>
      </trkpt>
      <trkpt lat="43.00851" lon="17.79761">
        <ele>196.800225</ele>
        <time>2022-06-11T12:55:49.029Z</time>
      </trkpt>
      <trkpt lat="43.0109" lon="17.79754">
        <ele>191.673402</ele>
        <time>2022-06-11T12:56:29.025Z</time>
      </trkpt>
      <trkpt lat="43.01103" lon="17.79512">
        <ele>180.742641</ele>
        <time>2022-06-11T12:57:20.016Z</time>
      </trkpt>
      <trkpt lat="43.01047" lon="17.7932">
        <ele>168.384535</ele>
        <time>2022-06-11T12:58:08.054Z</time>
      </trkpt>
      <trkpt lat="43.01025" lon="17.79071">
        <ele>159.117524</ele>
        <time>2022-06-11T12:58:53.014Z</time>
      </trkpt>
      <trkpt lat="43.01223" lon="17.79035">
        <ele>147.131933</ele>
        <time>2022-06-11T12:59:36.015Z</time>
      </trkpt>
      <trkpt lat="43.01248" lon="17.7881">
        <ele>133.740086</ele>
        <time>2022-06-11T13:00:16.020Z</time>
      </trkpt>
      <trkpt lat="43.0138" lon="17.78586">
        <ele>117.729868</ele>
        <time>2022-06-11T13:01:00.048Z</time>
      </trkpt>
      <trkpt lat="43.01563" lon="17.78467">
        <ele>101.177184</ele>
        <time>2022-06-11T13:01:45.023Z</time>
      </trkpt>
      <trkpt lat="43.01676" lon="17.78307">
        <ele>80.696798</ele>
        <time>2022-06-11T13:02:32.023Z</time>
      </trkpt>
      <trkpt lat="43.01705" lon="17.78105">
        <ele>62.450505</ele>
        <time>2022-06-11T13:03:28.017Z</time>
      </trkpt>
      <trkpt lat="43.01528" lon="17.77869">
        <ele>57.945993</ele>
        <time>2022-06-11T13:04:08.016Z</time>
      </trkpt>
      <trkpt lat="43.01618" lon="17.77648">
        <ele>60.344647</ele>
        <time>2022-06-11T13:05:03.026Z</time>
      </trkpt>
      <trkpt lat="43.01751" lon="17.77441">
        <ele>64.5359</ele>
        <time>2022-06-11T13:06:04.035Z</time>
      </trkpt>
      <trkpt lat="43.019" lon="17.77218">
        <ele>66.100387</ele>
        <time>2022-06-11T13:07:06.023Z</time>
      </trkpt>
      <trkpt lat="43.01899" lon="17.76946">
        <ele>64.126668</ele>
        <time>2022-06-11T13:08:13.020Z</time>
      </trkpt>
      <trkpt lat="43.02031" lon="17.7673">
        <ele>69.45057</ele>
        <time>2022-06-11T13:09:29.031Z</time>
      </trkpt>
      <trkpt lat="43.02121" lon="17.76436">
        <ele>66.448233</ele>
        <time>2022-06-11T13:10:32.025Z</time>
      </trkpt>
      <trkpt lat="43.02227" lon="17.76174">
        <ele>62.904585</ele>
        <time>2022-06-11T13:11:28.028Z</time>
      </trkpt>
      <trkpt lat="43.02287" lon="17.75889">
        <ele>58.167204</ele>
        <time>2022-06-11T13:12:16.027Z</time>
      </trkpt>
      <trkpt lat="43.02478" lon="17.75673">
        <ele>57.656963</ele>
        <time>2022-06-11T13:13:18.054Z</time>
      </trkpt>
      <trkpt lat="43.02628" lon="17.75463">
        <ele>59.510164</ele>
        <time>2022-06-11T13:14:24.029Z</time>
      </trkpt>
      <trkpt lat="43.02766" lon="17.75252">
        <ele>64.991712</ele>
        <time>2022-06-11T13:15:27.027Z</time>
      </trkpt>
      <trkpt lat="43.02835" lon="17.74993">
        <ele>68.979832</ele>
        <time>2022-06-11T13:16:28.021Z</time>
      </trkpt>
      <trkpt lat="43.0286" lon="17.74711">
        <ele>74.19628</ele>
        <time>2022-06-11T13:17:40.018Z</time>
      </trkpt>
      <trkpt lat="43.02976" lon="17.7442">
        <ele>78.470887</ele>
        <time>2022-06-11T13:18:46.026Z</time>
      </trkpt>
      <trkpt lat="43.03083" lon="17.74182">
        <ele>77.06101</ele>
        <time>2022-06-11T13:19:29.052Z</time>
      </trkpt>
      <trkpt lat="43.03157" lon="17.73946">
        <ele>70.890702</ele>
        <time>2022-06-11T13:20:11.028Z</time>
      </trkpt>
      <trkpt lat="43.03293" lon="17.73751">
        <ele>68.824619</ele>
        <time>2022-06-11T13:20:51.028Z</time>
      </trkpt>
      <trkpt lat="43.03374" lon="17.73501">
        <ele>68.780817</ele>
        <time>2022-06-11T13:21:32.020Z</time>
      </trkpt>
      <trkpt lat="43.03397" lon="17.73214">
        <ele>63.019468</ele>
        <time>2022-06-11T13:22:23.026Z</time>
      </trkpt>
      <trkpt lat="43.03426" lon="17.72893">
        <ele>58.884715</ele>
        <time>2022-06-11T13:23:22.032Z</time>
      </trkpt>
      <trkpt lat="43.03475" lon="17.72598">
        <ele>67.079794</ele>
        <time>2022-06-11T13:24:49.019Z</time>
      </trkpt>
      <trkpt lat="43.03594" lon="17.72355">
        <ele>72.103397</ele>
        <time>2022-06-11T13:25:53.031Z</time>
      </trkpt>
      <trkpt lat="43.03707" lon="17.72097">
        <ele>70.813654</ele>
        <time>2022-06-11T13:26:53.024Z</time>
      </trkpt>
      <trkpt lat="43.03792" lon="17.71822">
        <ele>68.660706</ele>
        <time>2022-06-11T13:27:57.034Z</time>
      </trkpt>
      <trkpt lat="43.03854" lon="17.71591">
        <ele>79.891275</ele>
        <time>2022-06-11T13:29:52.033Z</time>
      </trkpt>
      <trkpt lat="43.0391" lon="17.71335">
        <ele>84.692798</ele>
        <time>2022-06-11T13:32:12.051Z</time>
      </trkpt>
      <trkpt lat="43.04097" lon="17.71184">
        <ele>76.889073</ele>
        <time>2022-06-11T13:33:05.023Z</time>
      </trkpt>
      <trkpt lat="43.04255" lon="17.70966">
        <ele>68.088571</ele>
        <time>2022-06-11T13:33:45.028Z</time>
      </trkpt>
      <trkpt lat="43.04455" lon="17.70718">
        <ele>54.599615</ele>
        <time>2022-06-11T13:34:27.040Z</time>
      </trkpt>
      <trkpt lat="43.04637" lon="17.70491">
        <ele>50.669132</ele>
        <time>2022-06-11T13:35:12.018Z</time>
      </trkpt>
      <trkpt lat="43.04787" lon="17.70281">
        <ele>58.334165</ele>
        <time>2022-06-11T13:36:21.150Z</time>
      </trkpt>
      <trkpt lat="43.04921" lon="17.70141">
        <ele>63.818403</ele>
        <time>2022-06-11T13:38:20.024Z</time>
      </trkpt>
      <trkpt lat="43.05118" lon="17.70232">
        <ele>63.623067</ele>
        <time>2022-06-11T13:39:37.031Z</time>
      </trkpt>
      <trkpt lat="43.05275" lon="17.70467">
        <ele>60.835962</ele>
        <time>2022-06-11T13:40:19.014Z</time>
      </trkpt>
      <trkpt lat="43.05432" lon="17.70592">
        <ele>56.16338</ele>
        <time>2022-06-11T13:41:19.037Z</time>
      </trkpt>
      <trkpt lat="43.05631" lon="17.70457">
        <ele>52.529281</ele>
        <time>2022-06-11T13:42:41.021Z</time>
      </trkpt>
      <trkpt lat="43.05818" lon="17.70326">
        <ele>49.890866</ele>
        <time>2022-06-11T13:43:50.053Z</time>
      </trkpt>
      <trkpt lat="43.05987" lon="17.70116">
        <ele>49.303751</ele>
        <time>2022-06-11T13:44:50.025Z</time>
      </trkpt>
      <trkpt lat="43.06117" lon="17.69851">
        <ele>55.594816</ele>
        <time>2022-06-11T13:46:14.014Z</time>
      </trkpt>
      <trkpt lat="43.06283" lon="17.69627">
        <ele>55.785359</ele>
        <time>2022-06-11T13:47:13.028Z</time>
      </trkpt>
      <trkpt lat="43.06406" lon="17.6938">
        <ele>50.156612</ele>
        <time>2022-06-11T13:48:00.031Z</time>
      </trkpt>
      <trkpt lat="43.06569" lon="17.69151">
        <ele>48.327379</ele>
        <time>2022-06-11T13:52:19.033Z</time>
      </trkpt>
      <trkpt lat="43.06791" lon="17.69157">
        <ele>49.85314</ele>
        <time>2022-06-11T13:53:12.031Z</time>
      </trkpt>
      <trkpt lat="43.07035" lon="17.69095">
        <ele>52.476338</ele>
        <time>2022-06-11T13:54:15.032Z</time>
      </trkpt>
      <trkpt lat="43.07252" lon="17.69154">
        <ele>47.503125</ele>
        <time>2022-06-11T13:55:15.019Z</time>
      </trkpt>
      <trkpt lat="43.07458" lon="17.69323">
        <ele>48.813151</ele>
        <time>2022-06-11T13:56:18.023Z</time>
      </trkpt>
      <trkpt lat="43.07676" lon="17.69396">
        <ele>49.368845</ele>
        <time>2022-06-11T13:57:18.019Z</time>
      </trkpt>
      <trkpt lat="43.07893" lon="17.69458">
        <ele>48.602614</ele>
        <time>2022-06-11T13:58:18.034Z</time>
      </trkpt>
      <trkpt lat="43.08117" lon="17.69422">
        <ele>48.946901</ele>
        <time>2022-06-11T13:59:21.031Z</time>
      </trkpt>
      <trkpt lat="43.08321" lon="17.69448">
        <ele>49.092053</ele>
        <time>2022-06-11T14:00:21.036Z</time>
      </trkpt>
      <trkpt lat="43.08538" lon="17.69528">
        <ele>50.439991</ele>
        <time>2022-06-11T14:01:24.025Z</time>
      </trkpt>
      <trkpt lat="43.08733" lon="17.6962">
        <ele>50.353527</ele>
        <time>2022-06-11T14:02:24.024Z</time>
      </trkpt>
      <trkpt lat="43.08909" lon="17.6972">
        <ele>50.8527</ele>
        <time>2022-06-11T14:03:24.035Z</time>
      </trkpt>
      <trkpt lat="43.09111" lon="17.69782">
        <ele>54.772499</ele>
        <time>2022-06-11T14:04:30.017Z</time>
      </trkpt>
      <trkpt lat="43.09298" lon="17.69738">
        <ele>56.568158</ele>
        <time>2022-06-11T14:05:36.025Z</time>
      </trkpt>
      <trkpt lat="43.09485" lon="17.6987">
        <ele>53.732869</ele>
        <time>2022-06-11T14:06:41.019Z</time>
      </trkpt>
      <trkpt lat="43.09708" lon="17.69883">
        <ele>54.75773</ele>
        <time>2022-06-11T14:07:39.033Z</time>
      </trkpt>
      <trkpt lat="43.09943" lon="17.6989">
        <ele>52.255305</ele>
        <time>2022-06-11T14:08:42.029Z</time>
      </trkpt>
      <trkpt lat="43.10154" lon="17.69798">
        <ele>57.790313</ele>
        <time>2022-06-11T14:09:53.024Z</time>
      </trkpt>
      <trkpt lat="43.10373" lon="17.69781">
        <ele>53.416777</ele>
        <time>2022-06-11T14:10:53.016Z</time>
      </trkpt>
      <trkpt lat="43.10544" lon="17.69903">
        <ele>50.787214</ele>
        <time>2022-06-11T14:12:07.013Z</time>
      </trkpt>
      <trkpt lat="43.10717" lon="17.70025">
        <ele>52.255729</ele>
        <time>2022-06-11T14:13:34.002Z</time>
      </trkpt>
      <trkpt lat="43.10899" lon="17.70127">
        <ele>57.738728</ele>
        <time>2022-06-11T14:14:43.994Z</time>
      </trkpt>
      <trkpt lat="43.10812" lon="17.70298">
        <ele>64.458916</ele>
        <time>2022-06-11T14:15:49.995Z</time>
      </trkpt>
      <trkpt lat="43.10723" lon="17.703">
        <ele>64.458916</ele>
        <time>2022-06-11T14:20:37.852Z</time>
      </trkpt>
    </trkseg>
  </trk>
</gpx>